sensor_id;sensor_type;location;lat;lon;timestamp;P1;durP1;ratioP1;P2;durP2;ratioP2
69730;SDS011;56996;48.138;11.538;2023-04-15T00:01:44;8.00;;;2.00;;
69730;SDS011;56996;48.138;11.538;2023-04-15T00:04:10;7.00;;;1.90;;
69730;SDS011;56996;48.138;11.538;2023-04-15T00:06:36;8.00;;;2.00;;
69730;SDS011;56996;48.138;11.538;2023-04-15T00:09:02;5.70;;;1.80;;
69730;SDS011;56996;48.138;11.538;2023-04-15T00:11:29;6.80;;;1.90;;
69730;SDS011;56996;48.138;11.538;2023-04-15T00:13:55;7.00;;;1.80;;
69730;SDS011;56996;48.138;11.538;2023-04-15T00:16:21;6.00;;;1.80;;
69730;SDS011;56996;48.138;11.538;2023-04-15T00:18:47;6.30;;;1.70;;
69730;SDS011;56996;48.138;11.538;2023-04-15T00:21:13;6.40;;;1.80;;
69730;SDS011;56996;48.138;11.538;2023-04-15T00:23:39;7.50;;;2.00;;
69730;SDS011;56996;48.138;11.538;2023-04-15T00:26:05;7.10;;;2.00;;
69730;SDS011;56996;48.138;11.538;2023-04-15T00:28:31;7.70;;;1.80;;
69730;SDS011;56996;48.138;11.538;2023-04-15T00:30:57;7.90;;;1.80;;
69730;SDS011;56996;48.138;11.538;2023-04-15T00:33:23;9.00;;;2.10;;
69730;SDS011;56996;48.138;11.538;2023-04-15T00:35:49;6.60;;;2.20;;
69730;SDS011;56996;48.138;11.538;2023-04-15T00:38:16;6.80;;;1.90;;
69730;SDS011;56996;48.138;11.538;2023-04-15T00:40:42;8.20;;;2.20;;
69730;SDS011;56996;48.138;11.538;2023-04-15T00:43:08;8.00;;;2.30;;
69730;SDS011;56996;48.138;11.538;2023-04-15T00:45:34;7.10;;;2.30;;
69730;SDS011;56996;48.138;11.538;2023-04-15T00:48:00;8.40;;;1.90;;
69730;SDS011;56996;48.138;11.538;2023-04-15T00:50:27;6.00;;;1.90;;
69730;SDS011;56996;48.138;11.538;2023-04-15T00:52:53;6.60;;;2.00;;
69730;SDS011;56996;48.138;11.538;2023-04-15T00:55:19;6.40;;;1.70;;
69730;SDS011;56996;48.138;11.538;2023-04-15T00:57:45;8.10;;;1.90;;
69730;SDS011;56996;48.138;11.538;2023-04-15T01:00:11;8.80;;;2.00;;
69730;SDS011;56996;48.138;11.538;2023-04-15T01:02:38;6.40;;;2.00;;
69730;SDS011;56996;48.138;11.538;2023-04-15T01:05:04;7.30;;;2.00;;
69730;SDS011;56996;48.138;11.538;2023-04-15T01:07:30;7.30;;;2.40;;
69730;SDS011;56996;48.138;11.538;2023-04-15T01:09:57;7.10;;;2.00;;
69730;SDS011;56996;48.138;11.538;2023-04-15T01:12:25;7.60;;;2.10;;
69730;SDS011;56996;48.138;11.538;2023-04-15T01:14:52;7.50;;;2.30;;
69730;SDS011;56996;48.138;11.538;2023-04-15T01:17:19;7.40;;;2.30;;
69730;SDS011;56996;48.138;11.538;2023-04-15T01:19:46;8.80;;;2.20;;
69730;SDS011;56996;48.138;11.538;2023-04-15T01:22:12;9.00;;;2.20;;
69730;SDS011;56996;48.138;11.538;2023-04-15T01:24:39;6.20;;;1.80;;
69730;SDS011;56996;48.138;11.538;2023-04-15T01:27:05;7.00;;;1.90;;
69730;SDS011;56996;48.138;11.538;2023-04-15T01:29:35;7.20;;;2.20;;
69730;SDS011;56996;48.138;11.538;2023-04-15T01:32:04;7.90;;;2.10;;
69730;SDS011;56996;48.138;11.538;2023-04-15T01:34:30;6.90;;;2.00;;
69730;SDS011;56996;48.138;11.538;2023-04-15T01:36:58;8.10;;;2.30;;
69730;SDS011;56996;48.138;11.538;2023-04-15T01:39:24;6.20;;;2.10;;
69730;SDS011;56996;48.138;11.538;2023-04-15T01:41:51;7.70;;;2.00;;
69730;SDS011;56996;48.138;11.538;2023-04-15T01:44:16;7.20;;;2.10;;
69730;SDS011;56996;48.138;11.538;2023-04-15T01:46:42;6.70;;;2.00;;
69730;SDS011;56996;48.138;11.538;2023-04-15T01:49:09;8.00;;;2.30;;
69730;SDS011;56996;48.138;11.538;2023-04-15T01:51:35;6.80;;;2.40;;
69730;SDS011;56996;48.138;11.538;2023-04-15T01:54:01;6.10;;;2.20;;
69730;SDS011;56996;48.138;11.538;2023-04-15T01:56:28;6.90;;;2.10;;
69730;SDS011;56996;48.138;11.538;2023-04-15T01:58:54;7.00;;;2.30;;
69730;SDS011;56996;48.138;11.538;2023-04-15T02:01:20;7.10;;;2.10;;
69730;SDS011;56996;48.138;11.538;2023-04-15T02:03:46;8.40;;;2.50;;
69730;SDS011;56996;48.138;11.538;2023-04-15T02:06:14;8.30;;;2.30;;
69730;SDS011;56996;48.138;11.538;2023-04-15T02:08:40;5.50;;;1.80;;
69730;SDS011;56996;48.138;11.538;2023-04-15T02:11:06;7.90;;;2.30;;
69730;SDS011;56996;48.138;11.538;2023-04-15T02:13:32;7.50;;;2.30;;
69730;SDS011;56996;48.138;11.538;2023-04-15T02:15:58;6.90;;;2.30;;
69730;SDS011;56996;48.138;11.538;2023-04-15T02:18:25;6.20;;;1.90;;
69730;SDS011;56996;48.138;11.538;2023-04-15T02:20:51;6.60;;;2.20;;
69730;SDS011;56996;48.138;11.538;2023-04-15T02:23:18;7.70;;;2.00;;
69730;SDS011;56996;48.138;11.538;2023-04-15T02:25:43;6.20;;;2.10;;
69730;SDS011;56996;48.138;11.538;2023-04-15T02:28:20;7.20;;;2.30;;
69730;SDS011;56996;48.138;11.538;2023-04-15T02:30:50;8.00;;;2.40;;
69730;SDS011;56996;48.138;11.538;2023-04-15T02:33:17;6.50;;;1.90;;
69730;SDS011;56996;48.138;11.538;2023-04-15T02:35:43;7.40;;;2.40;;
69730;SDS011;56996;48.138;11.538;2023-04-15T02:38:10;8.80;;;2.20;;
69730;SDS011;56996;48.138;11.538;2023-04-15T02:40:36;5.60;;;1.80;;
69730;SDS011;56996;48.138;11.538;2023-04-15T02:43:02;7.00;;;2.20;;
69730;SDS011;56996;48.138;11.538;2023-04-15T02:45:30;8.00;;;2.20;;
69730;SDS011;56996;48.138;11.538;2023-04-15T02:47:59;5.80;;;1.90;;
69730;SDS011;56996;48.138;11.538;2023-04-15T02:50:28;7.40;;;2.10;;
69730;SDS011;56996;48.138;11.538;2023-04-15T02:52:55;7.40;;;2.00;;
69730;SDS011;56996;48.138;11.538;2023-04-15T02:55:21;6.40;;;2.20;;
69730;SDS011;56996;48.138;11.538;2023-04-15T02:57:47;6.70;;;1.90;;
69730;SDS011;56996;48.138;11.538;2023-04-15T03:00:13;6.30;;;1.90;;
69730;SDS011;56996;48.138;11.538;2023-04-15T03:02:41;7.20;;;2.20;;
69730;SDS011;56996;48.138;11.538;2023-04-15T03:05:12;5.60;;;2.20;;
69730;SDS011;56996;48.138;11.538;2023-04-15T03:07:42;6.30;;;2.10;;
69730;SDS011;56996;48.138;11.538;2023-04-15T03:10:08;6.70;;;2.00;;
69730;SDS011;56996;48.138;11.538;2023-04-15T03:12:35;8.20;;;1.80;;
69730;SDS011;56996;48.138;11.538;2023-04-15T03:15:02;8.20;;;2.20;;
69730;SDS011;56996;48.138;11.538;2023-04-15T03:17:33;6.40;;;1.70;;
69730;SDS011;56996;48.138;11.538;2023-04-15T03:20:03;6.50;;;2.00;;
69730;SDS011;56996;48.138;11.538;2023-04-15T03:22:31;8.00;;;2.00;;
69730;SDS011;56996;48.138;11.538;2023-04-15T03:24:57;6.90;;;1.80;;
69730;SDS011;56996;48.138;11.538;2023-04-15T03:27:24;7.40;;;2.00;;
69730;SDS011;56996;48.138;11.538;2023-04-15T03:29:51;8.80;;;2.20;;
69730;SDS011;56996;48.138;11.538;2023-04-15T03:32:18;8.10;;;2.00;;
69730;SDS011;56996;48.138;11.538;2023-04-15T03:34:44;9.10;;;1.80;;
69730;SDS011;56996;48.138;11.538;2023-04-15T03:37:10;6.50;;;1.70;;
69730;SDS011;56996;48.138;11.538;2023-04-15T03:39:36;7.40;;;2.00;;
69730;SDS011;56996;48.138;11.538;2023-04-15T03:42:02;6.60;;;1.70;;
69730;SDS011;56996;48.138;11.538;2023-04-15T03:44:28;5.90;;;1.50;;
69730;SDS011;56996;48.138;11.538;2023-04-15T03:46:55;7.20;;;1.90;;
69730;SDS011;56996;48.138;11.538;2023-04-15T03:49:21;6.60;;;1.70;;
69730;SDS011;56996;48.138;11.538;2023-04-15T03:51:47;8.30;;;1.90;;
69730;SDS011;56996;48.138;11.538;2023-04-15T03:54:13;5.60;;;1.80;;
69730;SDS011;56996;48.138;11.538;2023-04-15T03:56:39;7.40;;;1.80;;
69730;SDS011;56996;48.138;11.538;2023-04-15T03:59:05;5.10;;;1.50;;
69730;SDS011;56996;48.138;11.538;2023-04-15T04:01:31;6.10;;;1.70;;
69730;SDS011;56996;48.138;11.538;2023-04-15T04:03:57;8.20;;;2.10;;
69730;SDS011;56996;48.138;11.538;2023-04-15T04:06:23;6.10;;;1.80;;
69730;SDS011;56996;48.138;11.538;2023-04-15T04:08:49;7.30;;;1.70;;
69730;SDS011;56996;48.138;11.538;2023-04-15T04:11:15;6.90;;;1.80;;
69730;SDS011;56996;48.138;11.538;2023-04-15T04:13:41;6.70;;;1.70;;
69730;SDS011;56996;48.138;11.538;2023-04-15T04:16:07;7.20;;;2.00;;
69730;SDS011;56996;48.138;11.538;2023-04-15T04:18:33;7.80;;;2.10;;
69730;SDS011;56996;48.138;11.538;2023-04-15T04:21:00;6.50;;;1.50;;
69730;SDS011;56996;48.138;11.538;2023-04-15T04:23:26;6.90;;;1.80;;
69730;SDS011;56996;48.138;11.538;2023-04-15T04:25:52;6.50;;;1.80;;
69730;SDS011;56996;48.138;11.538;2023-04-15T04:28:18;7.50;;;1.60;;
69730;SDS011;56996;48.138;11.538;2023-04-15T04:30:44;5.70;;;1.50;;
69730;SDS011;56996;48.138;11.538;2023-04-15T04:33:10;5.20;;;1.60;;
69730;SDS011;56996;48.138;11.538;2023-04-15T04:35:36;5.30;;;1.50;;
69730;SDS011;56996;48.138;11.538;2023-04-15T04:38:03;5.80;;;1.50;;
69730;SDS011;56996;48.138;11.538;2023-04-15T04:40:29;6.10;;;1.50;;
69730;SDS011;56996;48.138;11.538;2023-04-15T04:42:55;8.00;;;1.70;;
69730;SDS011;56996;48.138;11.538;2023-04-15T04:45:21;5.50;;;1.70;;
69730;SDS011;56996;48.138;11.538;2023-04-15T04:47:47;6.50;;;1.60;;
69730;SDS011;56996;48.138;11.538;2023-04-15T04:50:13;6.30;;;1.50;;
69730;SDS011;56996;48.138;11.538;2023-04-15T04:52:39;6.20;;;1.30;;
69730;SDS011;56996;48.138;11.538;2023-04-15T04:55:05;5.80;;;1.40;;
69730;SDS011;56996;48.138;11.538;2023-04-15T04:57:33;6.50;;;1.40;;
69730;SDS011;56996;48.138;11.538;2023-04-15T05:00:05;6.10;;;1.50;;
69730;SDS011;56996;48.138;11.538;2023-04-15T05:02:33;5.60;;;1.40;;
69730;SDS011;56996;48.138;11.538;2023-04-15T05:05:00;7.00;;;1.50;;
69730;SDS011;56996;48.138;11.538;2023-04-15T05:07:26;5.70;;;1.30;;
69730;SDS011;56996;48.138;11.538;2023-04-15T05:09:52;6.00;;;1.50;;
69730;SDS011;56996;48.138;11.538;2023-04-15T05:12:18;6.40;;;1.70;;
69730;SDS011;56996;48.138;11.538;2023-04-15T05:14:44;5.80;;;1.70;;
69730;SDS011;56996;48.138;11.538;2023-04-15T05:17:11;7.40;;;1.40;;
69730;SDS011;56996;48.138;11.538;2023-04-15T05:19:37;7.40;;;1.70;;
69730;SDS011;56996;48.138;11.538;2023-04-15T05:22:03;6.40;;;1.60;;
69730;SDS011;56996;48.138;11.538;2023-04-15T05:24:29;6.50;;;1.70;;
69730;SDS011;56996;48.138;11.538;2023-04-15T05:26:55;6.70;;;1.60;;
69730;SDS011;56996;48.138;11.538;2023-04-15T05:29:21;5.90;;;1.20;;
69730;SDS011;56996;48.138;11.538;2023-04-15T05:31:47;6.20;;;1.40;;
69730;SDS011;56996;48.138;11.538;2023-04-15T05:34:13;6.50;;;1.50;;
69730;SDS011;56996;48.138;11.538;2023-04-15T05:36:41;6.20;;;1.60;;
69730;SDS011;56996;48.138;11.538;2023-04-15T05:39:07;5.50;;;1.40;;
69730;SDS011;56996;48.138;11.538;2023-04-15T05:41:33;5.70;;;1.40;;
69730;SDS011;56996;48.138;11.538;2023-04-15T05:43:59;6.00;;;1.50;;
69730;SDS011;56996;48.138;11.538;2023-04-15T05:46:26;5.70;;;1.30;;
69730;SDS011;56996;48.138;11.538;2023-04-15T05:48:52;6.00;;;1.30;;
69730;SDS011;56996;48.138;11.538;2023-04-15T05:51:20;4.70;;;1.20;;
69730;SDS011;56996;48.138;11.538;2023-04-15T05:53:46;7.70;;;1.60;;
69730;SDS011;56996;48.138;11.538;2023-04-15T05:56:12;6.70;;;1.70;;
69730;SDS011;56996;48.138;11.538;2023-04-15T05:58:38;6.00;;;1.80;;
69730;SDS011;56996;48.138;11.538;2023-04-15T06:01:04;6.00;;;2.10;;
69730;SDS011;56996;48.138;11.538;2023-04-15T06:03:31;8.10;;;2.50;;
69730;SDS011;56996;48.138;11.538;2023-04-15T06:05:57;4.50;;;1.20;;
69730;SDS011;56996;48.138;11.538;2023-04-15T06:08:23;6.30;;;1.50;;
69730;SDS011;56996;48.138;11.538;2023-04-15T06:10:49;7.00;;;1.90;;
69730;SDS011;56996;48.138;11.538;2023-04-15T06:13:15;4.70;;;1.20;;
69730;SDS011;56996;48.138;11.538;2023-04-15T06:15:41;6.00;;;1.40;;
69730;SDS011;56996;48.138;11.538;2023-04-15T06:18:07;5.70;;;1.30;;
69730;SDS011;56996;48.138;11.538;2023-04-15T06:20:33;5.20;;;1.30;;
69730;SDS011;56996;48.138;11.538;2023-04-15T06:22:59;5.80;;;1.20;;
69730;SDS011;56996;48.138;11.538;2023-04-15T06:25:25;4.30;;;1.10;;
69730;SDS011;56996;48.138;11.538;2023-04-15T06:27:51;7.10;;;1.20;;
69730;SDS011;56996;48.138;11.538;2023-04-15T06:30:17;4.60;;;1.10;;
69730;SDS011;56996;48.138;11.538;2023-04-15T06:32:43;4.60;;;1.10;;
69730;SDS011;56996;48.138;11.538;2023-04-15T06:35:09;6.20;;;1.40;;
69730;SDS011;56996;48.138;11.538;2023-04-15T06:37:36;5.00;;;1.00;;
69730;SDS011;56996;48.138;11.538;2023-04-15T06:40:02;5.70;;;1.20;;
69730;SDS011;56996;48.138;11.538;2023-04-15T06:42:30;6.10;;;1.30;;
69730;SDS011;56996;48.138;11.538;2023-04-15T06:44:56;5.60;;;1.30;;
69730;SDS011;56996;48.138;11.538;2023-04-15T06:47:22;5.30;;;0.90;;
69730;SDS011;56996;48.138;11.538;2023-04-15T06:49:47;5.40;;;1.20;;
69730;SDS011;56996;48.138;11.538;2023-04-15T06:52:13;5.40;;;1.20;;
69730;SDS011;56996;48.138;11.538;2023-04-15T06:54:41;6.40;;;1.40;;
69730;SDS011;56996;48.138;11.538;2023-04-15T06:57:08;6.60;;;1.20;;
69730;SDS011;56996;48.138;11.538;2023-04-15T06:59:34;6.50;;;1.20;;
69730;SDS011;56996;48.138;11.538;2023-04-15T07:02:01;6.00;;;1.00;;
69730;SDS011;56996;48.138;11.538;2023-04-15T07:04:27;4.30;;;1.00;;
69730;SDS011;56996;48.138;11.538;2023-04-15T07:06:53;4.70;;;1.10;;
69730;SDS011;56996;48.138;11.538;2023-04-15T07:09:23;4.80;;;1.00;;
69730;SDS011;56996;48.138;11.538;2023-04-15T07:11:49;4.20;;;1.10;;
69730;SDS011;56996;48.138;11.538;2023-04-15T07:14:16;4.60;;;1.00;;
69730;SDS011;56996;48.138;11.538;2023-04-15T07:16:42;4.00;;;0.90;;
69730;SDS011;56996;48.138;11.538;2023-04-15T07:19:08;5.40;;;1.30;;
69730;SDS011;56996;48.138;11.538;2023-04-15T07:21:34;5.10;;;1.10;;
69730;SDS011;56996;48.138;11.538;2023-04-15T07:24:00;4.80;;;0.80;;
69730;SDS011;56996;48.138;11.538;2023-04-15T07:26:26;5.40;;;1.00;;
69730;SDS011;56996;48.138;11.538;2023-04-15T07:28:51;5.60;;;0.90;;
69730;SDS011;56996;48.138;11.538;2023-04-15T07:31:17;4.70;;;1.00;;
69730;SDS011;56996;48.138;11.538;2023-04-15T07:33:44;6.80;;;2.10;;
69730;SDS011;56996;48.138;11.538;2023-04-15T07:36:10;4.90;;;1.10;;
69730;SDS011;56996;48.138;11.538;2023-04-15T07:38:36;4.40;;;1.20;;
69730;SDS011;56996;48.138;11.538;2023-04-15T07:41:02;6.30;;;1.30;;
69730;SDS011;56996;48.138;11.538;2023-04-15T07:43:28;4.80;;;1.10;;
69730;SDS011;56996;48.138;11.538;2023-04-15T07:45:54;4.70;;;1.10;;
69730;SDS011;56996;48.138;11.538;2023-04-15T07:48:20;6.40;;;1.50;;
69730;SDS011;56996;48.138;11.538;2023-04-15T07:50:47;5.80;;;1.20;;
69730;SDS011;56996;48.138;11.538;2023-04-15T07:53:13;8.10;;;3.40;;
69730;SDS011;56996;48.138;11.538;2023-04-15T07:55:39;7.40;;;1.30;;
69730;SDS011;56996;48.138;11.538;2023-04-15T07:58:05;6.60;;;1.30;;
69730;SDS011;56996;48.138;11.538;2023-04-15T08:00:31;6.80;;;1.10;;
69730;SDS011;56996;48.138;11.538;2023-04-15T08:02:56;5.60;;;1.10;;
69730;SDS011;56996;48.138;11.538;2023-04-15T08:05:24;6.10;;;1.50;;
69730;SDS011;56996;48.138;11.538;2023-04-15T08:07:50;6.40;;;1.40;;
69730;SDS011;56996;48.138;11.538;2023-04-15T08:10:16;4.00;;;0.90;;
69730;SDS011;56996;48.138;11.538;2023-04-15T08:12:42;3.90;;;0.70;;
69730;SDS011;56996;48.138;11.538;2023-04-15T08:15:08;4.70;;;1.00;;
69730;SDS011;56996;48.138;11.538;2023-04-15T08:17:35;6.80;;;1.40;;
69730;SDS011;56996;48.138;11.538;2023-04-15T08:20:01;4.30;;;1.10;;
69730;SDS011;56996;48.138;11.538;2023-04-15T08:22:28;5.00;;;1.00;;
69730;SDS011;56996;48.138;11.538;2023-04-15T08:24:54;5.10;;;1.30;;
69730;SDS011;56996;48.138;11.538;2023-04-15T08:27:20;5.00;;;1.10;;
69730;SDS011;56996;48.138;11.538;2023-04-15T08:29:46;4.90;;;1.20;;
69730;SDS011;56996;48.138;11.538;2023-04-15T08:32:12;4.00;;;1.00;;
69730;SDS011;56996;48.138;11.538;2023-04-15T08:34:38;5.50;;;1.50;;
69730;SDS011;56996;48.138;11.538;2023-04-15T08:37:04;5.80;;;1.40;;
69730;SDS011;56996;48.138;11.538;2023-04-15T08:39:31;4.60;;;1.30;;
69730;SDS011;56996;48.138;11.538;2023-04-15T08:42:01;6.50;;;1.70;;
69730;SDS011;56996;48.138;11.538;2023-04-15T08:44:29;7.40;;;2.30;;
69730;SDS011;56996;48.138;11.538;2023-04-15T08:47:02;5.80;;;1.70;;
69730;SDS011;56996;48.138;11.538;2023-04-15T08:49:31;4.10;;;1.20;;
69730;SDS011;56996;48.138;11.538;2023-04-15T08:51:58;5.10;;;1.00;;
69730;SDS011;56996;48.138;11.538;2023-04-15T08:54:25;5.70;;;1.40;;
69730;SDS011;56996;48.138;11.538;2023-04-15T08:56:53;6.80;;;1.60;;
69730;SDS011;56996;48.138;11.538;2023-04-15T08:59:20;6.80;;;1.70;;
69730;SDS011;56996;48.138;11.538;2023-04-15T09:01:48;5.60;;;1.90;;
69730;SDS011;56996;48.138;11.538;2023-04-15T09:04:16;7.60;;;1.40;;
69730;SDS011;56996;48.138;11.538;2023-04-15T09:06:42;5.50;;;1.30;;
69730;SDS011;56996;48.138;11.538;2023-04-15T09:09:08;6.40;;;1.40;;
69730;SDS011;56996;48.138;11.538;2023-04-15T09:11:34;5.80;;;1.20;;
69730;SDS011;56996;48.138;11.538;2023-04-15T09:14:01;6.90;;;1.50;;
69730;SDS011;56996;48.138;11.538;2023-04-15T09:16:27;7.60;;;1.70;;
69730;SDS011;56996;48.138;11.538;2023-04-15T09:18:53;5.90;;;1.60;;
69730;SDS011;56996;48.138;11.538;2023-04-15T09:21:19;6.70;;;1.40;;
69730;SDS011;56996;48.138;11.538;2023-04-15T09:23:59;7.50;;;1.80;;
69730;SDS011;56996;48.138;11.538;2023-04-15T09:26:35;6.20;;;1.80;;
69730;SDS011;56996;48.138;11.538;2023-04-15T09:29:10;5.00;;;1.40;;
69730;SDS011;56996;48.138;11.538;2023-04-15T09:31:40;6.00;;;1.50;;
69730;SDS011;56996;48.138;11.538;2023-04-15T09:34:07;5.30;;;1.70;;
69730;SDS011;56996;48.138;11.538;2023-04-15T09:39:12;7.30;;;2.00;;
69730;SDS011;56996;48.138;11.538;2023-04-15T09:41:39;6.50;;;2.40;;
69730;SDS011;56996;48.138;11.538;2023-04-15T09:44:05;5.40;;;1.90;;
69730;SDS011;56996;48.138;11.538;2023-04-15T09:46:42;6.20;;;1.70;;
69730;SDS011;56996;48.138;11.538;2023-04-15T09:49:10;6.50;;;1.70;;
69730;SDS011;56996;48.138;11.538;2023-04-15T09:51:37;7.30;;;1.70;;
69730;SDS011;56996;48.138;11.538;2023-04-15T09:54:04;5.40;;;1.70;;
69730;SDS011;56996;48.138;11.538;2023-04-15T09:56:37;6.80;;;2.10;;
69730;SDS011;56996;48.138;11.538;2023-04-15T09:59:07;5.20;;;1.90;;
69730;SDS011;56996;48.138;11.538;2023-04-15T10:01:34;5.20;;;1.70;;
69730;SDS011;56996;48.138;11.538;2023-04-15T10:04:03;6.40;;;1.90;;
69730;SDS011;56996;48.138;11.538;2023-04-15T10:06:30;4.80;;;1.40;;
69730;SDS011;56996;48.138;11.538;2023-04-15T10:08:57;7.80;;;2.30;;
69730;SDS011;56996;48.138;11.538;2023-04-15T10:11:27;7.00;;;1.90;;
69730;SDS011;56996;48.138;11.538;2023-04-15T10:13:56;8.10;;;2.10;;
69730;SDS011;56996;48.138;11.538;2023-04-15T10:16:25;7.20;;;2.30;;
69730;SDS011;56996;48.138;11.538;2023-04-15T10:18:56;7.20;;;2.40;;
69730;SDS011;56996;48.138;11.538;2023-04-15T10:21:27;6.60;;;1.70;;
69730;SDS011;56996;48.138;11.538;2023-04-15T10:23:53;7.60;;;2.30;;
69730;SDS011;56996;48.138;11.538;2023-04-15T10:26:19;6.90;;;2.30;;
69730;SDS011;56996;48.138;11.538;2023-04-15T10:28:46;6.70;;;1.70;;
69730;SDS011;56996;48.138;11.538;2023-04-15T10:31:14;7.20;;;2.40;;
69730;SDS011;56996;48.138;11.538;2023-04-15T10:33:41;7.90;;;2.40;;
69730;SDS011;56996;48.138;11.538;2023-04-15T10:36:08;8.50;;;2.60;;
69730;SDS011;56996;48.138;11.538;2023-04-15T10:38:40;8.20;;;2.50;;
69730;SDS011;56996;48.138;11.538;2023-04-15T10:41:26;5.90;;;1.70;;
69730;SDS011;56996;48.138;11.538;2023-04-15T10:44:02;6.10;;;1.90;;
69730;SDS011;56996;48.138;11.538;2023-04-15T10:46:43;7.70;;;2.30;;
69730;SDS011;56996;48.138;11.538;2023-04-15T10:49:14;8.20;;;2.80;;
69730;SDS011;56996;48.138;11.538;2023-04-15T10:51:45;6.50;;;2.70;;
69730;SDS011;56996;48.138;11.538;2023-04-15T10:54:30;7.00;;;2.30;;
69730;SDS011;56996;48.138;11.538;2023-04-15T10:59:31;6.30;;;2.20;;
69730;SDS011;56996;48.138;11.538;2023-04-15T11:02:17;6.80;;;2.30;;
69730;SDS011;56996;48.138;11.538;2023-04-15T11:04:54;6.80;;;2.40;;
69730;SDS011;56996;48.138;11.538;2023-04-15T11:07:52;6.00;;;2.00;;
69730;SDS011;56996;48.138;11.538;2023-04-15T11:12:57;7.50;;;2.20;;
69730;SDS011;56996;48.138;11.538;2023-04-15T11:15:41;5.90;;;1.80;;
69730;SDS011;56996;48.138;11.538;2023-04-15T11:18:13;7.80;;;2.50;;
69730;SDS011;56996;48.138;11.538;2023-04-15T11:20:58;5.30;;;1.90;;
69730;SDS011;56996;48.138;11.538;2023-04-15T11:23:38;7.30;;;2.40;;
69730;SDS011;56996;48.138;11.538;2023-04-15T11:26:07;8.50;;;3.10;;
69730;SDS011;56996;48.138;11.538;2023-04-15T11:28:41;5.60;;;2.00;;
69730;SDS011;56996;48.138;11.538;2023-04-15T11:31:13;7.00;;;2.90;;
69730;SDS011;56996;48.138;11.538;2023-04-15T11:33:58;8.50;;;3.30;;
69730;SDS011;56996;48.138;11.538;2023-04-15T11:36:27;7.60;;;3.10;;
69730;SDS011;56996;48.138;11.538;2023-04-15T11:38:56;7.00;;;2.40;;
69730;SDS011;56996;48.138;11.538;2023-04-15T11:41:23;7.90;;;2.70;;
69730;SDS011;56996;48.138;11.538;2023-04-15T11:43:50;7.10;;;2.70;;
69730;SDS011;56996;48.138;11.538;2023-04-15T11:46:17;7.30;;;2.80;;
69730;SDS011;56996;48.138;11.538;2023-04-15T11:48:45;8.20;;;2.70;;
69730;SDS011;56996;48.138;11.538;2023-04-15T11:51:12;7.10;;;2.90;;
69730;SDS011;56996;48.138;11.538;2023-04-15T11:53:45;7.10;;;2.50;;
69730;SDS011;56996;48.138;11.538;2023-04-15T11:56:21;6.60;;;2.40;;
69730;SDS011;56996;48.138;11.538;2023-04-15T11:58:53;8.10;;;2.60;;
69730;SDS011;56996;48.138;11.538;2023-04-15T12:01:39;8.10;;;2.60;;
69730;SDS011;56996;48.138;11.538;2023-04-15T12:04:15;7.10;;;2.40;;
69730;SDS011;56996;48.138;11.538;2023-04-15T12:06:49;6.30;;;1.70;;
69730;SDS011;56996;48.138;11.538;2023-04-15T12:09:15;6.20;;;2.60;;
69730;SDS011;56996;48.138;11.538;2023-04-15T12:11:43;7.30;;;2.50;;
69730;SDS011;56996;48.138;11.538;2023-04-15T12:14:23;8.70;;;3.20;;
69730;SDS011;56996;48.138;11.538;2023-04-15T12:16:52;7.60;;;2.50;;
69730;SDS011;56996;48.138;11.538;2023-04-15T12:19:37;7.30;;;2.80;;
69730;SDS011;56996;48.138;11.538;2023-04-15T12:22:08;6.70;;;2.60;;
69730;SDS011;56996;48.138;11.538;2023-04-15T12:24:37;9.50;;;2.50;;
69730;SDS011;56996;48.138;11.538;2023-04-15T12:27:08;6.80;;;2.70;;
69730;SDS011;56996;48.138;11.538;2023-04-15T12:29:37;8.10;;;2.50;;
69730;SDS011;56996;48.138;11.538;2023-04-15T12:32:11;8.50;;;2.70;;
69730;SDS011;56996;48.138;11.538;2023-04-15T12:37:09;9.70;;;3.10;;
69730;SDS011;56996;48.138;11.538;2023-04-15T12:39:38;7.10;;;2.90;;
69730;SDS011;56996;48.138;11.538;2023-04-15T12:42:06;7.70;;;3.00;;
69730;SDS011;56996;48.138;11.538;2023-04-15T12:44:34;5.70;;;1.90;;
69730;SDS011;56996;48.138;11.538;2023-04-15T12:47:02;7.80;;;2.30;;
69730;SDS011;56996;48.138;11.538;2023-04-15T12:49:29;7.60;;;2.60;;
69730;SDS011;56996;48.138;11.538;2023-04-15T12:51:57;6.40;;;1.90;;
69730;SDS011;56996;48.138;11.538;2023-04-15T12:54:27;6.80;;;2.00;;
69730;SDS011;56996;48.138;11.538;2023-04-15T12:56:55;5.60;;;2.00;;
69730;SDS011;56996;48.138;11.538;2023-04-15T12:59:21;6.60;;;1.80;;
69730;SDS011;56996;48.138;11.538;2023-04-15T13:01:49;5.70;;;1.70;;
69730;SDS011;56996;48.138;11.538;2023-04-15T13:04:17;5.00;;;1.50;;
69730;SDS011;56996;48.138;11.538;2023-04-15T13:06:44;5.90;;;1.70;;
69730;SDS011;56996;48.138;11.538;2023-04-15T13:09:10;5.70;;;1.80;;
69730;SDS011;56996;48.138;11.538;2023-04-15T13:11:36;6.60;;;2.00;;
69730;SDS011;56996;48.138;11.538;2023-04-15T13:14:06;7.80;;;1.70;;
69730;SDS011;56996;48.138;11.538;2023-04-15T13:16:33;5.60;;;1.70;;
69730;SDS011;56996;48.138;11.538;2023-04-15T13:19:00;5.40;;;1.50;;
69730;SDS011;56996;48.138;11.538;2023-04-15T13:21:27;6.60;;;1.60;;
69730;SDS011;56996;48.138;11.538;2023-04-15T13:23:54;8.00;;;1.70;;
69730;SDS011;56996;48.138;11.538;2023-04-15T13:26:20;6.30;;;2.00;;
69730;SDS011;56996;48.138;11.538;2023-04-15T13:28:47;6.70;;;1.90;;
69730;SDS011;56996;48.138;11.538;2023-04-15T13:31:12;5.30;;;1.60;;
69730;SDS011;56996;48.138;11.538;2023-04-15T13:33:38;6.00;;;2.20;;
69730;SDS011;56996;48.138;11.538;2023-04-15T13:36:05;5.90;;;2.00;;
69730;SDS011;56996;48.138;11.538;2023-04-15T13:38:31;5.90;;;1.80;;
69730;SDS011;56996;48.138;11.538;2023-04-15T13:40:58;6.00;;;1.70;;
69730;SDS011;56996;48.138;11.538;2023-04-15T13:43:24;6.90;;;2.40;;
69730;SDS011;56996;48.138;11.538;2023-04-15T13:45:50;6.60;;;2.20;;
69730;SDS011;56996;48.138;11.538;2023-04-15T13:48:15;6.90;;;2.50;;
69730;SDS011;56996;48.138;11.538;2023-04-15T13:50:41;7.30;;;2.10;;
69730;SDS011;56996;48.138;11.538;2023-04-15T13:53:11;6.40;;;2.10;;
69730;SDS011;56996;48.138;11.538;2023-04-15T13:55:37;6.30;;;2.40;;
69730;SDS011;56996;48.138;11.538;2023-04-15T13:58:07;6.40;;;2.20;;
69730;SDS011;56996;48.138;11.538;2023-04-15T14:00:33;6.90;;;2.30;;
69730;SDS011;56996;48.138;11.538;2023-04-15T14:02:59;6.60;;;2.70;;
69730;SDS011;56996;48.138;11.538;2023-04-15T14:05:26;6.90;;;2.80;;
69730;SDS011;56996;48.138;11.538;2023-04-15T14:07:52;6.30;;;2.20;;
69730;SDS011;56996;48.138;11.538;2023-04-15T14:10:18;6.90;;;2.30;;
69730;SDS011;56996;48.138;11.538;2023-04-15T14:12:44;6.30;;;2.10;;
69730;SDS011;56996;48.138;11.538;2023-04-15T14:15:10;8.50;;;2.10;;
69730;SDS011;56996;48.138;11.538;2023-04-15T14:17:36;6.60;;;2.10;;
69730;SDS011;56996;48.138;11.538;2023-04-15T14:20:02;8.10;;;3.00;;
69730;SDS011;56996;48.138;11.538;2023-04-15T14:22:28;7.70;;;2.30;;
69730;SDS011;56996;48.138;11.538;2023-04-15T14:24:54;6.20;;;1.80;;
69730;SDS011;56996;48.138;11.538;2023-04-15T14:27:20;5.30;;;1.70;;
69730;SDS011;56996;48.138;11.538;2023-04-15T14:29:47;6.10;;;1.70;;
69730;SDS011;56996;48.138;11.538;2023-04-15T14:32:13;7.50;;;2.10;;
69730;SDS011;56996;48.138;11.538;2023-04-15T14:34:42;5.40;;;1.60;;
69730;SDS011;56996;48.138;11.538;2023-04-15T14:37:08;5.50;;;1.90;;
69730;SDS011;56996;48.138;11.538;2023-04-15T14:39:34;5.20;;;1.60;;
69730;SDS011;56996;48.138;11.538;2023-04-15T14:42:00;6.50;;;1.90;;
69730;SDS011;56996;48.138;11.538;2023-04-15T14:44:26;5.90;;;1.80;;
69730;SDS011;56996;48.138;11.538;2023-04-15T14:46:52;7.30;;;2.10;;